This demonstration page uses our WeatherBlox Daily Observations layout. Learn more.

38.88101, -77.10428

Hourly Observations for November 7, 2016

Temp ( °F °C ) Dew Point ( °F °C ) Humidity (%) Winds ( mph kmh ) Pressure ( in mb ) Visibility ( mi km ) Precip ( " mm )
12:52 am 00:52 Clear 51 10.6 32 0 48 48 NE 9 15 30.42 1030 10 16.09344 0 0
1:52 am 01:52 Clear 49 9.4 33 0.6 55 55 ENE 7 11 30.42 1030 10 16.09344 0 0
2:52 am 02:52 Clear 48 8.9 32 0 54 54 N 5 7 30.45 1031 10 16.09344 0 0
3:52 am 03:52 Clear 47 8.3 31 -0.6 54 54 NNE 9 15 30.45 1031 10 16.09344 0 0
4:52 am 04:52 Clear 47 8.3 31 -0.6 54 54 N 13 20 30.45 1031 10 16.09344 0 0
5:52 am 05:52 Mostly Clear 46 7.8 31 -0.6 56 56 N 10 17 30.48 1032 10 16.09344 0 0
6:52 am 06:52 Mostly Sunny 45 7.2 32 0 61 61 NNE 9 15 30.5 1033 10 16.09344 0 0
7:52 am 07:52 Mostly Sunny 47 8.3 32 0 56 56 NE 9 15 30.5 1033 10 16.09344 0 0
8:52 am 08:52 Mostly Sunny 49 9.4 32 0 52 52 NNE 12 19 30.5 1033 10 16.09344 0 0
9:52 am 09:52 Mostly Sunny 52 11.1 32 0 47 47 NNE 8 13 30.5 1033 10 16.09344 0 0
10:52 am 10:52 Sunny 54 12.2 32 0 43 43 ENE 8 13 30.5 1033 10 16.09344 0 0
11:52 am 11:52 Sunny 56 13.3 30 -1.1 37 37 Calm 30.5 1033 10 16.09344 0 0
12:52 pm 12:52 Sunny 56 13.3 30 -1.1 37 37 E 5 7 30.45 1031 10 16.09344 0 0
1:52 pm 13:52 Sunny 58 14.4 31 -0.6 36 36 E 5 7 30.42 1030 10 16.09344 0 0
2:52 pm 14:52 Sunny 59 15 32 0 36 36 Calm 30.42 1030 10 16.09344 0 0
3:52 pm 15:52 Sunny 60 15.6 32 0 35 35 E 3 6 30.42 1030 10 16.09344 0 0
4:52 pm 16:52 Sunny 59 15 30 -1.1 33 33 Calm 30.39 1029 10 16.09344 0 0
5:52 pm 17:52 Clear 57 13.9 30 -1.1 36 36 NNW 6 9 30.39 1029 10 16.09344 0 0
6:52 pm 18:52 Clear 53 11.7 36 2.2 52 52 Calm 30.39 1029 10 16.09344 0 0
7:52 pm 19:52 Clear 51 10.6 39 3.9 64 64 ESE 5 7 30.39 1029 10 16.09344 0 0
8:52 pm 20:52 Clear 50 10 39 3.9 66 66 S 3 6 30.39 1029 10 16.09344 0.001 0.001
9:52 pm 21:52 Clear 47 8.3 40 4.4 77 77 SSE 5 7 30.39 1029 10 16.09344 0 0
10:52 pm 22:52 Clear 46 7.8 39 3.9 77 77 SSW 6 9 30.36 1028 7 11.265408 0 0
11:52 pm 23:52 Clear 45 7.2 38 3.3 77 77 SW 5 7 30.36 1028 8 12.874752 0 0

Powered by AerisWeather